createdAt,value
2023-02-19T00:00:27.651Z,72.08
2023-02-19T00:05:50.523Z,72.25
2023-02-19T00:10:53.632Z,72.69
2023-02-19T00:15:57.592Z,72.46
2023-02-19T00:21:00.769Z,72.67
2023-02-19T00:26:18.233Z,72.46
2023-02-19T00:31:23.662Z,72.06
2023-02-19T00:36:28.329Z,72.05
2023-02-19T00:41:31.438Z,71.98
2023-02-19T00:46:39.591Z,72.23
2023-02-19T00:51:42.473Z,72.29
2023-02-19T00:56:45.587Z,72.82
2023-02-19T01:01:49.984Z,72.62
2023-02-19T01:06:53.021Z,72.64
2023-02-19T01:11:56.029Z,73.08
2023-02-19T01:16:59.543Z,73.01
2023-02-19T01:22:02.343Z,73.12
2023-02-19T01:27:05.250Z,73.35
2023-02-19T01:32:08.261Z,73.44
2023-02-19T01:37:12.397Z,73.26
2023-02-19T01:42:17.183Z,73.43
2023-02-19T01:47:21.165Z,73.61
2023-02-19T01:52:36.972Z,73.68
2023-02-19T01:57:46.535Z,74.19
2023-02-19T02:02:53.053Z,73.64
2023-02-19T02:08:15.692Z,73.72
2023-02-19T02:13:19.110Z,73.60
2023-02-19T02:18:22.010Z,73.06
2023-02-19T02:23:30.856Z,72.99
2023-02-19T02:28:58.041Z,72.90
2023-02-19T02:34:17.523Z,72.70
2023-02-19T02:39:22.622Z,72.60
2023-02-19T02:44:35.320Z,72.41
2023-02-19T02:49:59.127Z,71.96
2023-02-19T02:55:05.182Z,72.02
2023-02-19T03:00:09.110Z,71.87
2023-02-19T03:05:41.822Z,71.67
2023-02-19T03:10:51.706Z,71.45
2023-02-19T03:16:23.458Z,71.46
2023-02-19T03:21:28.621Z,71.59
2023-02-19T03:26:33.882Z,71.29
2023-02-19T03:31:39.462Z,71.05
2023-02-19T03:36:46.440Z,71.13
2023-02-19T03:42:01.128Z,71.35
2023-02-19T03:47:43.838Z,71.50
2023-02-19T03:52:55.774Z,71.75
2023-02-19T03:58:10.354Z,71.74
2023-02-19T04:03:13.261Z,71.83
2023-02-19T04:08:22.212Z,71.90
2023-02-19T04:13:31.256Z,71.73
2023-02-19T04:18:38.565Z,71.66
2023-02-19T04:23:44.933Z,71.65
2023-02-19T04:28:48.064Z,71.52
2023-02-19T04:33:50.960Z,71.27
2023-02-19T04:38:53.861Z,71.11
2023-02-19T04:43:56.763Z,71.14
2023-02-19T04:48:59.566Z,71.27
2023-02-19T04:54:02.473Z,71.26
2023-02-19T04:59:05.884Z,71.16
2023-02-19T05:04:09.114Z,70.81
2023-02-19T05:09:12.001Z,70.83
2023-02-19T05:14:14.903Z,70.79
2023-02-19T05:19:18.084Z,70.80
2023-02-19T05:24:21.020Z,70.79
2023-02-19T05:29:24.132Z,70.99
2023-02-19T05:34:27.054Z,70.98
2023-02-19T05:39:29.937Z,71.11
2023-02-19T05:44:32.843Z,71.09
2023-02-19T05:49:36.157Z,71.20
2023-02-19T05:54:39.262Z,71.26
2023-02-19T05:59:42.166Z,71.31
2023-02-19T06:04:45.072Z,71.56
2023-02-19T06:09:51.428Z,71.57
2023-02-19T06:14:54.359Z,71.68
2023-02-19T06:19:57.266Z,71.93
2023-02-19T06:25:00.105Z,71.65
2023-02-19T06:30:03.121Z,71.64
2023-02-19T06:35:06.392Z,71.75
2023-02-19T06:40:10.087Z,71.82
2023-02-19T06:45:12.916Z,71.85
2023-02-19T06:50:15.938Z,72.00
2023-02-19T06:55:18.828Z,72.06
2023-02-19T07:00:22.049Z,72.10
2023-02-19T07:05:24.941Z,72.06
2023-02-19T07:10:27.843Z,72.12
2023-02-19T07:15:30.746Z,71.81
2023-02-19T07:20:33.962Z,71.67
2023-02-19T07:25:38.107Z,71.62
2023-02-19T07:30:41.024Z,71.42
2023-02-19T07:35:48.298Z,71.23
2023-02-19T07:40:55.774Z,71.08
2023-02-19T07:45:59.616Z,70.90
2023-02-19T07:51:05.751Z,70.58
2023-02-19T07:56:11.697Z,70.46
2023-02-19T08:01:17.714Z,70.12
2023-02-19T08:06:20.576Z,70.28
2023-02-19T08:11:42.632Z,70.04
2023-02-19T08:16:50.549Z,70.03
2023-02-19T08:21:53.803Z,70.31
2023-02-19T08:26:56.969Z,69.78
2023-02-19T08:31:59.792Z,68.84
2023-02-19T08:37:02.787Z,67.95
2023-02-19T08:42:07.120Z,67.51
2023-02-19T08:47:10.020Z,67.46
2023-02-19T08:52:12.922Z,67.40
2023-02-19T08:57:15.826Z,67.63
2023-02-19T09:02:18.833Z,68.04
2023-02-19T09:07:22.160Z,68.56
2023-02-19T09:12:25.760Z,68.63
2023-02-19T09:17:28.671Z,67.82
2023-02-19T09:22:31.577Z,67.44
2023-02-19T09:27:34.597Z,66.87
2023-02-19T09:32:37.488Z,66.86
2023-02-19T09:37:40.295Z,63.74
2023-02-19T09:42:43.877Z,59.06
2023-02-19T09:47:47.230Z,57.07
2023-02-19T09:52:55.151Z,58.75
2023-02-19T09:58:01.521Z,59.74
2023-02-19T10:03:11.507Z,61.14
2023-02-19T10:08:20.446Z,61.19
2023-02-19T10:13:31.134Z,58.13
2023-02-19T10:18:42.645Z,56.65
2023-02-19T10:23:47.590Z,53.32
2023-02-19T10:28:50.495Z,52.23
2023-02-19T10:33:56.063Z,52.79
2023-02-19T10:39:00.728Z,52.32
2023-02-19T10:44:07.139Z,47.92
2023-02-19T10:49:33.041Z,47.22
2023-02-19T10:54:36.899Z,41.39
2023-02-19T10:59:50.388Z,38.80
2023-02-19T11:05:20.517Z,37.54
2023-02-19T11:10:26.645Z,36.45
2023-02-19T11:15:35.504Z,34.15
2023-02-19T11:21:10.864Z,31.77
2023-02-19T11:26:23.181Z,27.53
2023-02-19T11:31:32.264Z,26.77
2023-02-19T11:36:36.869Z,28.52
2023-02-19T11:41:58.618Z,28.92
2023-02-19T11:47:31.015Z,28.43
2023-02-19T11:52:52.144Z,31.04
2023-02-19T11:58:25.562Z,31.04
2023-02-19T12:04:02.052Z,30.99
2023-02-19T12:09:23.392Z,32.44
2023-02-19T12:14:52.633Z,33.92
2023-02-19T12:20:07.057Z,35.94
2023-02-19T12:25:48.186Z,32.44
2023-02-19T12:31:13.035Z,28.69
2023-02-19T12:36:31.063Z,27.07
2023-02-19T12:41:47.670Z,26.64
2023-02-19T12:46:59.299Z,28.09
2023-02-19T12:52:32.103Z,28.29
2023-02-19T12:57:37.273Z,28.59
2023-02-19T13:03:06.012Z,26.75
2023-02-19T13:08:19.327Z,25.20
2023-02-19T13:13:44.366Z,23.79
2023-02-19T13:18:55.447Z,25.64
2023-02-19T13:23:58.501Z,28.51
2023-02-19T13:29:26.033Z,31.38
2023-02-19T13:35:06.012Z,31.93
2023-02-19T13:40:27.652Z,29.14
2023-02-19T13:45:46.436Z,27.61
2023-02-19T13:50:50.222Z,28.62
2023-02-19T13:55:53.314Z,30.66
2023-02-19T14:00:56.263Z,31.80
2023-02-19T14:06:02.772Z,32.72
2023-02-19T14:11:06.273Z,34.14
2023-02-19T14:16:33.256Z,35.52
2023-02-19T14:21:41.370Z,37.05
2023-02-19T14:26:44.682Z,38.30
2023-02-19T14:31:47.609Z,40.58
2023-02-19T14:36:55.605Z,41.39
2023-02-19T14:42:02.296Z,42.18
2023-02-19T14:47:13.804Z,42.96
2023-02-19T14:52:32.377Z,43.02
2023-02-19T14:57:45.951Z,43.09
2023-02-19T15:02:51.702Z,43.36
2023-02-19T15:07:59.522Z,43.19
2023-02-19T15:13:11.759Z,41.29
2023-02-19T15:18:23.654Z,40.48
2023-02-19T15:23:30.664Z,39.42
2023-02-19T15:28:34.593Z,38.67
2023-02-19T15:33:37.597Z,38.97
2023-02-19T15:38:40.601Z,39.52
2023-02-19T15:43:50.889Z,40.47
2023-02-19T15:49:01.425Z,41.39
2023-02-19T15:54:15.231Z,41.98
2023-02-19T15:59:29.088Z,43.35
2023-02-19T16:04:34.754Z,44.56
2023-02-19T16:09:40.217Z,46.12
2023-02-19T16:14:43.121Z,46.97
2023-02-19T16:19:48.089Z,47.99
2023-02-19T16:24:55.385Z,49.03
2023-02-19T16:29:59.157Z,48.96
2023-02-19T16:35:02.214Z,49.81
2023-02-19T16:40:08.212Z,50.62
2023-02-19T16:45:11.207Z,50.73
2023-02-19T16:50:22.297Z,51.17
2023-02-19T16:55:25.678Z,51.40
2023-02-19T17:00:31.278Z,52.13
2023-02-19T17:05:34.280Z,53.58
2023-02-19T17:10:37.185Z,53.50
2023-02-19T17:15:39.991Z,53.61
2023-02-19T17:20:48.639Z,54.57
2023-02-19T17:25:52.103Z,55.57
2023-02-19T17:30:55.045Z,55.55
2023-02-19T17:35:58.472Z,54.93
2023-02-19T17:41:01.365Z,54.82
2023-02-19T17:46:04.701Z,54.72
2023-02-19T17:51:07.682Z,54.42
2023-02-19T17:56:15.810Z,54.33
2023-02-19T18:01:18.761Z,54.15
2023-02-19T18:06:21.836Z,54.20
2023-02-19T18:11:24.840Z,53.98
2023-02-19T18:16:27.779Z,54.06
2023-02-19T18:21:30.639Z,54.24
2023-02-19T18:26:34.515Z,54.60
2023-02-19T18:31:37.969Z,55.49
2023-02-19T18:36:45.187Z,56.01
2023-02-19T18:41:49.540Z,56.42
2023-02-19T18:46:52.738Z,56.54
2023-02-19T18:51:56.234Z,56.79
2023-02-19T18:57:00.839Z,57.22
2023-02-19T19:02:05.244Z,57.88
2023-02-19T19:07:10.206Z,58.43
2023-02-19T19:12:13.209Z,58.84
2023-02-19T19:17:16.104Z,58.85
2023-02-19T19:22:22.900Z,58.66
2023-02-19T19:27:26.214Z,58.88
2023-02-19T19:32:29.122Z,59.08
2023-02-19T19:37:32.132Z,59.07
2023-02-19T19:42:35.847Z,59.15
2023-02-19T19:47:38.759Z,59.53
2023-02-19T19:52:41.962Z,59.63
2023-02-19T19:57:44.978Z,59.42
2023-02-19T20:02:48.218Z,59.21
2023-02-19T20:07:53.727Z,59.50
2023-02-19T20:12:56.650Z,59.90
2023-02-19T20:17:59.657Z,60.39
2023-02-19T20:23:02.558Z,61.00
2023-02-19T20:28:05.897Z,61.60
2023-02-19T20:33:08.772Z,62.21
2023-02-19T20:38:15.163Z,62.52
2023-02-19T20:43:18.372Z,60.25
2023-02-19T20:48:21.376Z,59.40
2023-02-19T20:53:24.281Z,61.29
2023-02-19T20:58:27.904Z,62.79
2023-02-19T21:03:30.911Z,61.64
2023-02-19T21:08:33.821Z,59.69
2023-02-19T21:13:36.922Z,60.33
2023-02-19T21:18:39.931Z,62.92
2023-02-19T21:23:42.839Z,62.85
2023-02-19T21:28:45.738Z,63.30
2023-02-19T21:33:49.059Z,63.25
2023-02-19T21:38:51.955Z,63.48
2023-02-19T21:43:56.802Z,63.62
2023-02-19T21:49:00.714Z,64.68
2023-02-19T21:54:04.762Z,64.88
2023-02-19T21:59:07.666Z,65.42
2023-02-19T22:04:17.121Z,65.03
2023-02-19T22:09:20.035Z,65.09
2023-02-19T22:14:22.894Z,65.15
2023-02-19T22:19:25.831Z,65.16
2023-02-19T22:24:28.738Z,65.81
2023-02-19T22:29:31.645Z,65.32
2023-02-19T22:34:39.659Z,65.52
2023-02-19T22:39:43.181Z,66.43
2023-02-19T22:44:45.988Z,66.69
2023-02-19T22:49:48.887Z,67.55
2023-02-19T22:54:52.692Z,68.15
2023-02-19T22:59:55.646Z,68.39
2023-02-19T23:04:58.626Z,69.32
2023-02-19T23:10:01.437Z,70.10
2023-02-19T23:15:05.986Z,70.70
2023-02-19T23:20:09.551Z,70.98
2023-02-19T23:25:12.406Z,71.07
2023-02-19T23:30:17.289Z,71.24
2023-02-19T23:35:20.358Z,71.28
2023-02-19T23:40:23.358Z,71.33
2023-02-19T23:45:26.373Z,71.25
2023-02-19T23:50:29.266Z,71.97
2023-02-19T23:55:32.167Z,72.28
